Pagina principală
METAR-TAF:

METAR-TAF

Aeroporturi :

Newton City/County Airport

Newton, Kansas, Statele Unite ale Americii

Latitudine: 38-03N, longitudine: 097-17W, elevație: 467 m

Observații meteo curente

Raportul a fost făcut în urmă cu 19 de minute, la 20:56 UTC
Vânt 18 kt de la Vest/Sud-vest cu rafale de până la 25 kt
Temperatură 36°C
Umiditate 45%
Presiune 1011 hPa
Vizibilitate: 16.1 km
Nori puțini la o înălțime de 6500 picior

METAR: KEWK 222056Z AUTO 24018G25KT 10SM FEW065 36/22 A2986 RMK AO2 PK WND 24029/2000 SLP092 T03560217 58009

Ora: 16:15 (21:15 UTC)


TAF: lipsă

Observații și prognoze meteo pentru peste 4.000 de aeroporturi (rapoarte METAR și TAF).

Stațiile disponibile sunt reprezentate pe hartă prin puncte galbene și roșii.

Țineți indicatorul mouse-ului pe punctul dorit pentru a vedea denumirea stației.

Apoi, faceți clic pentru a vedea observațiile și prognozele meteorologice.

Pentru a schimba harta: Pentru mărire, faceți clic pe butoanele verzi cu cruce neagră; pentru micșorare, pe butonul verde cu o liniuță; pentru hărți învecinate, pe săgețile verzi.


METAR-TAF: